Aeroporto :
LOGIN :

Iscrizione | Disclaimer

   EN    FR    IT 

 










Sommario :    VFR   VFR Marginale   IFR   IFR Intensivo   IFR Molto Intensivo
Visibilità : 
Base nubi : 
>= 8 km
>= 3000ft
5 / 8 km
1000 / 3000 ft
1500m / 5 km
500 / 1000 ft
800 / 1500m
200 / 500 ft
< 800m
< 200 ft
Simboli :   Temporali  Nebbia  Neve Forte  Precipitazioni Forti  Vento > 20 kt
SIGMETs :   Varie  Temporali  Ghiacco  Turbolenza  Onda orograficha  Ceneri Vulcaniche







- Altitudine del aeroporto : 1247 ft
- Codice IATA : PRG


LKPR - Praha Ruzyne

ULTIMO METAR :
  • 230630Z 02004KT CAVOK 16/13 Q1027 NOSIG

METARs OBSOLETI :
  • 230600Z 02004KT CAVOK 15/12 Q1027 NOSIG
  • 230530Z 35004KT CAVOK 14/12 Q1027 NOSIG
  • 230500Z 34003KT CAVOK 13/11 Q1027 NOSIG
  • 230430Z 34003KT 290V040 CAVOK 12/11 Q1027 NOSIG
  • 230400Z 33002KT CAVOK 12/11 Q1027 NOSIG

TAF TAF LKPR
Valido dal 23 a 06 ore il 24 a 12 ore UTC


230500Z 2306/2412 VRB02KT CAVOK
BECMG 2306/2308 05008KT
BECMG 2400/2402 VRB02KT
TEMPO 2401/2407 3000 BR SCT011
PROB30
TEMPO 2403/2406 1300 MIFG OVC005
Nessun NOTAM noto per questo aeroporto.



MetMap, La meteo Aeronautica in un colpo d'occhio ! - Copyright ORBIFLY Dicembre 2007 - Disclaimer

ORBIFLY MET'MAP TEAM :

Programmazione e sviluppo : Alexandra Zaïnal
Concezione e sviluppo : Baudouin d'Aumeries
Co-Programmazione e sviluppo : Marc-Olivier Méhu
Supporto tecnico e logistico : Manuel Goepfert
Aiuto per la traduzione : Arnaldo La Scala

Contatto : metmap@orbifly.com




FONTI E CREDITI :

   NOAA